Nearby METAR Reports

 

YMER - Merimbula Arpt, Australia
Distance from station: SE 12km
Updated: Tue, 25-Feb-2020 5:00pm AEDT
Overcast
Overcast
 Wind from NE
Wind: NE 9 km/h
Temperature: 23°C
Dew Point: 20°C
Humidity: 83%
Barometer: 1009 hPa
Clouds: Overcast
Visibility: 10 km
Cloud details: Partly cloudy 2743 m
Overcast 3505 m
2020/02/25 06:00 YMER 250600Z AUTO 05005KT 9999 // SCT090 OVC115 23/20 Q1009
YCOM - Cooma Snowy Mtns, Australia
Distance from station: NW 96km
Updated: Tue, 25-Feb-2020 5:00pm AEDT
Clear
Clear
 Wind from WSW
Wind: WSW 15 km/h
Temperature: 26°C
Dew Point: 10°C
Humidity: 37%
Barometer: 1013 hPa
Clouds: Clear
Visibility: 10 km
2020/02/25 06:00 YCOM 250600Z AUTO 25008KT 9999 // NCD 26/10 Q1013
 
YSCB - Canberra (civ/Mi, Australia
Distance from station: NNW 182km
Updated: Tue, 25-Feb-2020 5:00pm AEDT
Partly cloudy
Partly cloudy
 Wind from WNW
Wind: WNW 15 km/h
Temperature: 30°C
Dew Point: 12°C
Humidity: 33%
Barometer: 1012 hPa
Clouds: Partly cloudy
Visibility: 10 km
Cloud details: Partly cloudy 2073 m
2020/02/25 06:00 YSCB 250600Z AUTO 30008KT 250V350 9999 // SCT068 30/12 Q1012 NOSIG
YSNW - Nowra (aus-Navy), Australia
Distance from station: NNE 219km
Updated: Tue, 25-Feb-2020 5:00pm AEDT
Clear
Clear
 Wind from NE
Wind: NE 30 km/h
Temperature: 28°C
Heat Index: 28°C
Dew Point: 17°C
Humidity: 51%
Barometer: 1009 hPa
Summary: Clear
Visibility: greater than 10 km
2020/02/25 06:00 YSNW 250600Z 05016KT CAVOK 28/17 Q1009 NOSIG
 
YMAY - Albury Airport, Australia
Distance from station: WNW 271km
Updated: Tue, 25-Feb-2020 5:00pm AEDT
Partly cloudy
Partly cloudy
 Wind from W
Wind: W 13 km/h
Temperature: 33°C
Dew Point: 9°C
Humidity: 23%
Barometer: 1008 hPa
Clouds: Partly cloudy
Visibility: 10 km
Cloud details: Partly cloudy 3658 m
2020/02/25 06:00 YMAY 250600Z AUTO 27007KT 240V310 9999 // SCT120 33/09 Q1008
YSWG - Wagga Wagga(Cv/M, Australia
Distance from station: NW 283km
Updated: Tue, 25-Feb-2020 5:00pm AEDT
Clear
Clear
 Wind from W
Wind: W 17 km/h
Temperature: 34°C
Dew Point: 10°C
Humidity: 23%
Barometer: 1010 hPa
Clouds: Clear
Visibility: 10 km
2020/02/25 06:00 YSWG 250600Z AUTO 27009KT 9999 // NCD 34/10 Q1010
 
YWGT - Wangaratta Arp, Australia
Distance from station: W 317km
Updated: Tue, 25-Feb-2020 5:00pm AEDT
Partly cloudy
Partly cloudy
 Wind from NNW
Wind: NNW 26 km/h
Temperature: 34°C
Dew Point: 7°C
Humidity: 19%
Barometer: 1008 hPa
Clouds: Partly cloudy
Visibility: 10 km
Cloud details: Partly cloudy 3200 m
2020/02/25 06:00 YWGT 250600Z AUTO 33014KT 9999 // SCT105 34/07 Q1008
YSSY - Sydney Intl Airp, Australia
Distance from station: NNE 343km
Updated: Tue, 25-Feb-2020 5:00pm AEDT
Clear
Clear
 Wind from NE
Wind: NE 39 km/h
Temperature: 29°C
Heat Index: 30°C
Dew Point: 19°C
Humidity: 55%
Barometer: 1011 hPa
Summary: Clear
Visibility: greater than 10 km
2020/02/25 06:00 YSSY 250600Z 04021KT CAVOK 29/19 Q1011 NOSIG